sensor_id;sensor_type;location;lat;lon;timestamp;temperature;humidity
1377;DHT22;682;52.502;13.488;2024-01-30T00:02:18;3.70;1.00
1377;DHT22;682;52.502;13.488;2024-01-30T00:04:45;3.70;1.00
1377;DHT22;682;52.502;13.488;2024-01-30T00:07:12;3.60;1.00
1377;DHT22;682;52.502;13.488;2024-01-30T00:09:39;3.60;1.00
1377;DHT22;682;52.502;13.488;2024-01-30T00:12:07;3.50;1.00
1377;DHT22;682;52.502;13.488;2024-01-30T00:14:36;3.50;1.00
1377;DHT22;682;52.502;13.488;2024-01-30T00:17:05;3.50;1.00
1377;DHT22;682;52.502;13.488;2024-01-30T00:19:33;3.40;1.00
1377;DHT22;682;52.502;13.488;2024-01-30T00:22:00;3.30;1.00
1377;DHT22;682;52.502;13.488;2024-01-30T00:24:27;3.30;1.00
1377;DHT22;682;52.502;13.488;2024-01-30T00:26:54;3.20;1.00
1377;DHT22;682;52.502;13.488;2024-01-30T00:29:21;3.20;1.00
1377;DHT22;682;52.502;13.488;2024-01-30T00:31:48;3.20;1.00
1377;DHT22;682;52.502;13.488;2024-01-30T00:34:17;3.10;1.00
1377;DHT22;682;52.502;13.488;2024-01-30T00:36:45;3.10;1.00
1377;DHT22;682;52.502;13.488;2024-01-30T00:39:14;3.10;1.00
1377;DHT22;682;52.502;13.488;2024-01-30T00:41:41;3.10;1.00
1377;DHT22;682;52.502;13.488;2024-01-30T00:44:09;3.10;1.00
1377;DHT22;682;52.502;13.488;2024-01-30T00:46:35;3.10;1.00
1377;DHT22;682;52.502;13.488;2024-01-30T00:49:02;3.10;1.00
1377;DHT22;682;52.502;13.488;2024-01-30T00:51:31;3.10;1.00
1377;DHT22;682;52.502;13.488;2024-01-30T00:53:58;3.10;1.00
1377;DHT22;682;52.502;13.488;2024-01-30T00:56:25;3.00;1.00
1377;DHT22;682;52.502;13.488;2024-01-30T00:58:52;3.00;1.00
1377;DHT22;682;52.502;13.488;2024-01-30T01:01:19;3.00;1.00
1377;DHT22;682;52.502;13.488;2024-01-30T01:03:47;3.00;1.00
1377;DHT22;682;52.502;13.488;2024-01-30T01:06:15;3.00;1.00
1377;DHT22;682;52.502;13.488;2024-01-30T01:08:43;3.00;1.00
1377;DHT22;682;52.502;13.488;2024-01-30T01:11:10;3.00;1.00
1377;DHT22;682;52.502;13.488;2024-01-30T01:13:37;3.00;1.00
1377;DHT22;682;52.502;13.488;2024-01-30T01:16:04;2.90;1.00
1377;DHT22;682;52.502;13.488;2024-01-30T01:18:32;2.90;1.00
1377;DHT22;682;52.502;13.488;2024-01-30T01:20:59;2.80;1.00
1377;DHT22;682;52.502;13.488;2024-01-30T01:23:26;2.80;1.00
1377;DHT22;682;52.502;13.488;2024-01-30T01:25:55;2.90;1.00
1377;DHT22;682;52.502;13.488;2024-01-30T01:28:22;2.80;1.00
1377;DHT22;682;52.502;13.488;2024-01-30T01:30:51;2.80;1.00
1377;DHT22;682;52.502;13.488;2024-01-30T01:33:18;2.90;1.00
1377;DHT22;682;52.502;13.488;2024-01-30T01:35:45;2.90;1.00
1377;DHT22;682;52.502;13.488;2024-01-30T01:38:12;2.90;1.00
1377;DHT22;682;52.502;13.488;2024-01-30T01:40:40;2.90;1.00
1377;DHT22;682;52.502;13.488;2024-01-30T01:43:10;2.90;1.00
1377;DHT22;682;52.502;13.488;2024-01-30T01:45:37;2.80;1.00
1377;DHT22;682;52.502;13.488;2024-01-30T01:48:07;2.80;1.00
1377;DHT22;682;52.502;13.488;2024-01-30T01:50:36;2.80;1.00
1377;DHT22;682;52.502;13.488;2024-01-30T01:53:03;2.80;1.00
1377;DHT22;682;52.502;13.488;2024-01-30T01:55:31;2.80;1.00
1377;DHT22;682;52.502;13.488;2024-01-30T01:57:59;2.80;1.00
1377;DHT22;682;52.502;13.488;2024-01-30T02:00:28;2.70;1.00
1377;DHT22;682;52.502;13.488;2024-01-30T02:02:56;2.70;1.00
1377;DHT22;682;52.502;13.488;2024-01-30T02:05:24;2.60;1.00
1377;DHT22;682;52.502;13.488;2024-01-30T02:07:53;2.50;1.00
1377;DHT22;682;52.502;13.488;2024-01-30T02:10:23;2.50;1.00
1377;DHT22;682;52.502;13.488;2024-01-30T02:12:50;2.50;1.00
1377;DHT22;682;52.502;13.488;2024-01-30T02:15:18;2.50;1.00
1377;DHT22;682;52.502;13.488;2024-01-30T02:17:46;2.50;1.00
1377;DHT22;682;52.502;13.488;2024-01-30T02:20:16;2.60;1.00
1377;DHT22;682;52.502;13.488;2024-01-30T02:22:46;2.60;1.00
1377;DHT22;682;52.502;13.488;2024-01-30T02:25:13;2.70;1.00
1377;DHT22;682;52.502;13.488;2024-01-30T02:27:40;2.70;1.00
1377;DHT22;682;52.502;13.488;2024-01-30T02:30:08;2.70;1.00
1377;DHT22;682;52.502;13.488;2024-01-30T02:32:38;2.80;1.00
1377;DHT22;682;52.502;13.488;2024-01-30T02:35:06;2.90;1.00
1377;DHT22;682;52.502;13.488;2024-01-30T02:37:36;2.90;1.00
1377;DHT22;682;52.502;13.488;2024-01-30T02:40:06;3.00;1.00
1377;DHT22;682;52.502;13.488;2024-01-30T02:42:33;2.90;1.00
1377;DHT22;682;52.502;13.488;2024-01-30T02:45:00;2.90;1.00
1377;DHT22;682;52.502;13.488;2024-01-30T02:47:27;2.90;1.00
1377;DHT22;682;52.502;13.488;2024-01-30T02:49:54;3.00;1.00
1377;DHT22;682;52.502;13.488;2024-01-30T02:52:21;3.00;1.00
1377;DHT22;682;52.502;13.488;2024-01-30T02:54:48;3.00;1.00
1377;DHT22;682;52.502;13.488;2024-01-30T02:57:19;2.90;1.00
1377;DHT22;682;52.502;13.488;2024-01-30T02:59:46;2.90;1.00
1377;DHT22;682;52.502;13.488;2024-01-30T03:02:16;2.90;1.00
1377;DHT22;682;52.502;13.488;2024-01-30T03:04:43;2.90;1.00
1377;DHT22;682;52.502;13.488;2024-01-30T03:07:10;2.80;1.00
1377;DHT22;682;52.502;13.488;2024-01-30T03:09:37;2.80;1.00
1377;DHT22;682;52.502;13.488;2024-01-30T03:12:06;2.80;1.00
1377;DHT22;682;52.502;13.488;2024-01-30T03:14:34;2.70;1.00
1377;DHT22;682;52.502;13.488;2024-01-30T03:17:02;2.70;1.00
1377;DHT22;682;52.502;13.488;2024-01-30T03:19:29;2.70;1.00
1377;DHT22;682;52.502;13.488;2024-01-30T03:21:56;2.60;1.00
1377;DHT22;682;52.502;13.488;2024-01-30T03:24:23;2.60;1.00
1377;DHT22;682;52.502;13.488;2024-01-30T03:26:53;2.60;1.00
1377;DHT22;682;52.502;13.488;2024-01-30T03:29:21;2.50;1.00
1377;DHT22;682;52.502;13.488;2024-01-30T03:31:49;2.60;1.00
1377;DHT22;682;52.502;13.488;2024-01-30T03:34:16;2.50;1.00
1377;DHT22;682;52.502;13.488;2024-01-30T03:36:43;2.60;1.00
1377;DHT22;682;52.502;13.488;2024-01-30T03:39:11;2.60;1.00
1377;DHT22;682;52.502;13.488;2024-01-30T03:41:42;2.60;1.00
1377;DHT22;682;52.502;13.488;2024-01-30T03:44:09;2.70;1.00
1377;DHT22;682;52.502;13.488;2024-01-30T03:46:36;2.60;1.00
1377;DHT22;682;52.502;13.488;2024-01-30T03:49:05;2.60;1.00
1377;DHT22;682;52.502;13.488;2024-01-30T03:51:32;2.50;1.00
1377;DHT22;682;52.502;13.488;2024-01-30T03:53:59;2.50;1.00
1377;DHT22;682;52.502;13.488;2024-01-30T03:56:26;2.40;1.00
1377;DHT22;682;52.502;13.488;2024-01-30T03:58:53;2.40;1.00
1377;DHT22;682;52.502;13.488;2024-01-30T04:01:21;2.40;1.00
1377;DHT22;682;52.502;13.488;2024-01-30T04:03:48;2.40;1.00
1377;DHT22;682;52.502;13.488;2024-01-30T04:06:16;2.50;1.00
1377;DHT22;682;52.502;13.488;2024-01-30T04:08:44;2.60;1.00
1377;DHT22;682;52.502;13.488;2024-01-30T04:11:11;2.60;1.00
1377;DHT22;682;52.502;13.488;2024-01-30T04:13:38;2.60;1.00
1377;DHT22;682;52.502;13.488;2024-01-30T04:16:06;2.60;1.00
1377;DHT22;682;52.502;13.488;2024-01-30T04:18:33;2.60;1.00
1377;DHT22;682;52.502;13.488;2024-01-30T04:21:00;2.60;1.00
1377;DHT22;682;52.502;13.488;2024-01-30T04:23:31;2.70;1.00
1377;DHT22;682;52.502;13.488;2024-01-30T04:25:58;2.70;1.00
1377;DHT22;682;52.502;13.488;2024-01-30T04:28:25;2.60;1.00
1377;DHT22;682;52.502;13.488;2024-01-30T04:30:52;2.50;1.00
1377;DHT22;682;52.502;13.488;2024-01-30T04:33:20;2.50;1.00
1377;DHT22;682;52.502;13.488;2024-01-30T04:35:47;2.30;1.00
1377;DHT22;682;52.502;13.488;2024-01-30T04:38:14;2.30;1.00
1377;DHT22;682;52.502;13.488;2024-01-30T04:40:42;2.20;1.00
1377;DHT22;682;52.502;13.488;2024-01-30T04:43:09;2.20;1.00
1377;DHT22;682;52.502;13.488;2024-01-30T04:45:36;2.20;1.00
1377;DHT22;682;52.502;13.488;2024-01-30T04:48:04;2.10;1.00
1377;DHT22;682;52.502;13.488;2024-01-30T04:50:31;2.20;1.00
1377;DHT22;682;52.502;13.488;2024-01-30T04:52:58;2.20;1.00
1377;DHT22;682;52.502;13.488;2024-01-30T04:55:25;2.20;1.00
1377;DHT22;682;52.502;13.488;2024-01-30T04:57:54;2.30;1.00
1377;DHT22;682;52.502;13.488;2024-01-30T05:00:21;2.30;1.00
1377;DHT22;682;52.502;13.488;2024-01-30T05:02:48;2.30;1.00
1377;DHT22;682;52.502;13.488;2024-01-30T05:05:15;2.40;1.00
1377;DHT22;682;52.502;13.488;2024-01-30T05:07:42;2.40;1.00
1377;DHT22;682;52.502;13.488;2024-01-30T05:10:13;2.50;1.00
1377;DHT22;682;52.502;13.488;2024-01-30T05:12:40;2.40;1.00
1377;DHT22;682;52.502;13.488;2024-01-30T05:15:11;2.40;1.00
1377;DHT22;682;52.502;13.488;2024-01-30T05:17:38;2.40;1.00
1377;DHT22;682;52.502;13.488;2024-01-30T05:20:06;2.40;1.00
1377;DHT22;682;52.502;13.488;2024-01-30T05:22:33;2.40;1.00
1377;DHT22;682;52.502;13.488;2024-01-30T05:25:00;2.40;1.00
1377;DHT22;682;52.502;13.488;2024-01-30T05:27:27;2.50;1.00
1377;DHT22;682;52.502;13.488;2024-01-30T05:29:54;2.50;1.00
1377;DHT22;682;52.502;13.488;2024-01-30T05:32:22;2.50;1.00
1377;DHT22;682;52.502;13.488;2024-01-30T05:34:49;2.60;1.00
1377;DHT22;682;52.502;13.488;2024-01-30T05:37:16;2.50;1.00
1377;DHT22;682;52.502;13.488;2024-01-30T05:39:43;2.50;1.00
1377;DHT22;682;52.502;13.488;2024-01-30T05:42:10;2.50;1.00
1377;DHT22;682;52.502;13.488;2024-01-30T05:44:38;2.40;1.00
1377;DHT22;682;52.502;13.488;2024-01-30T05:47:05;2.40;1.00
1377;DHT22;682;52.502;13.488;2024-01-30T05:49:34;2.30;1.00
1377;DHT22;682;52.502;13.488;2024-01-30T05:52:03;2.30;1.00
1377;DHT22;682;52.502;13.488;2024-01-30T05:54:30;2.40;1.00
1377;DHT22;682;52.502;13.488;2024-01-30T05:56:57;2.40;1.00
1377;DHT22;682;52.502;13.488;2024-01-30T05:59:24;2.40;1.00
1377;DHT22;682;52.502;13.488;2024-01-30T06:01:51;2.40;1.00
1377;DHT22;682;52.502;13.488;2024-01-30T06:04:18;2.30;1.00
1377;DHT22;682;52.502;13.488;2024-01-30T06:06:46;2.30;1.00
1377;DHT22;682;52.502;13.488;2024-01-30T06:09:13;2.30;1.00
1377;DHT22;682;52.502;13.488;2024-01-30T06:11:40;2.30;1.00
1377;DHT22;682;52.502;13.488;2024-01-30T06:14:07;2.30;1.00
1377;DHT22;682;52.502;13.488;2024-01-30T06:16:35;2.30;1.00
1377;DHT22;682;52.502;13.488;2024-01-30T06:19:02;2.30;1.00
1377;DHT22;682;52.502;13.488;2024-01-30T06:21:29;2.30;1.00
1377;DHT22;682;52.502;13.488;2024-01-30T06:23:57;2.30;1.00
1377;DHT22;682;52.502;13.488;2024-01-30T06:26:24;2.40;1.00
1377;DHT22;682;52.502;13.488;2024-01-30T06:28:52;2.40;1.00
1377;DHT22;682;52.502;13.488;2024-01-30T06:31:19;2.40;1.00
1377;DHT22;682;52.502;13.488;2024-01-30T06:33:46;2.40;1.00
1377;DHT22;682;52.502;13.488;2024-01-30T06:36:14;2.40;1.00
1377;DHT22;682;52.502;13.488;2024-01-30T06:38:41;2.40;1.00
1377;DHT22;682;52.502;13.488;2024-01-30T06:41:09;2.50;1.00
1377;DHT22;682;52.502;13.488;2024-01-30T06:43:36;2.40;1.00
1377;DHT22;682;52.502;13.488;2024-01-30T06:46:04;2.50;1.00
1377;DHT22;682;52.502;13.488;2024-01-30T06:48:31;2.60;1.00
1377;DHT22;682;52.502;13.488;2024-01-30T06:50:58;2.60;1.00
1377;DHT22;682;52.502;13.488;2024-01-30T06:53:25;2.50;1.00
1377;DHT22;682;52.502;13.488;2024-01-30T06:55:53;2.60;1.00
1377;DHT22;682;52.502;13.488;2024-01-30T06:58:23;2.60;1.00
1377;DHT22;682;52.502;13.488;2024-01-30T07:00:50;2.60;1.00
1377;DHT22;682;52.502;13.488;2024-01-30T07:03:17;2.50;1.00
1377;DHT22;682;52.502;13.488;2024-01-30T07:05:44;2.60;1.00
1377;DHT22;682;52.502;13.488;2024-01-30T07:08:11;2.50;1.00
1377;DHT22;682;52.502;13.488;2024-01-30T07:10:37;2.50;1.00
1377;DHT22;682;52.502;13.488;2024-01-30T07:13:08;2.50;1.00
1377;DHT22;682;52.502;13.488;2024-01-30T07:15:37;2.50;1.00
1377;DHT22;682;52.502;13.488;2024-01-30T07:18:05;2.50;1.00
1377;DHT22;682;52.502;13.488;2024-01-30T07:20:32;2.50;1.00
1377;DHT22;682;52.502;13.488;2024-01-30T07:22:59;2.50;1.00
1377;DHT22;682;52.502;13.488;2024-01-30T07:25:26;2.50;1.00
1377;DHT22;682;52.502;13.488;2024-01-30T07:27:54;2.60;1.00
1377;DHT22;682;52.502;13.488;2024-01-30T07:30:23;2.60;1.00
1377;DHT22;682;52.502;13.488;2024-01-30T07:32:53;2.60;1.00
1377;DHT22;682;52.502;13.488;2024-01-30T07:35:21;2.70;1.00
1377;DHT22;682;52.502;13.488;2024-01-30T07:37:49;2.80;1.00
1377;DHT22;682;52.502;13.488;2024-01-30T07:40:18;2.80;1.00
1377;DHT22;682;52.502;13.488;2024-01-30T07:42:48;2.90;1.00
1377;DHT22;682;52.502;13.488;2024-01-30T07:45:16;2.90;1.00
1377;DHT22;682;52.502;13.488;2024-01-30T07:47:47;3.00;1.00
1377;DHT22;682;52.502;13.488;2024-01-30T07:50:16;3.20;1.00
1377;DHT22;682;52.502;13.488;2024-01-30T07:52:43;3.20;1.00
1377;DHT22;682;52.502;13.488;2024-01-30T07:55:10;3.30;1.00
1377;DHT22;682;52.502;13.488;2024-01-30T07:57:39;3.40;1.00
1377;DHT22;682;52.502;13.488;2024-01-30T08:00:08;3.40;1.00
1377;DHT22;682;52.502;13.488;2024-01-30T08:02:36;3.40;1.00
1377;DHT22;682;52.502;13.488;2024-01-30T08:05:03;3.50;1.00
1377;DHT22;682;52.502;13.488;2024-01-30T08:07:31;3.50;1.00
1377;DHT22;682;52.502;13.488;2024-01-30T08:09:58;3.50;1.00
1377;DHT22;682;52.502;13.488;2024-01-30T08:12:25;3.60;1.00
1377;DHT22;682;52.502;13.488;2024-01-30T08:14:52;3.60;1.00
1377;DHT22;682;52.502;13.488;2024-01-30T08:17:19;3.70;1.00
1377;DHT22;682;52.502;13.488;2024-01-30T08:19:47;3.80;1.00
1377;DHT22;682;52.502;13.488;2024-01-30T08:22:14;3.90;1.00
1377;DHT22;682;52.502;13.488;2024-01-30T08:24:43;4.00;1.00
1377;DHT22;682;52.502;13.488;2024-01-30T08:27:11;4.10;1.00
1377;DHT22;682;52.502;13.488;2024-01-30T08:29:38;4.20;1.00
1377;DHT22;682;52.502;13.488;2024-01-30T08:32:06;4.20;1.00
1377;DHT22;682;52.502;13.488;2024-01-30T08:34:33;4.20;1.00
1377;DHT22;682;52.502;13.488;2024-01-30T08:37:00;4.30;1.00
1377;DHT22;682;52.502;13.488;2024-01-30T08:39:27;4.30;1.00
1377;DHT22;682;52.502;13.488;2024-01-30T08:41:56;4.30;1.00
1377;DHT22;682;52.502;13.488;2024-01-30T08:44:23;4.40;1.00
1377;DHT22;682;52.502;13.488;2024-01-30T08:46:50;4.50;1.00
1377;DHT22;682;52.502;13.488;2024-01-30T08:49:17;4.70;1.00
1377;DHT22;682;52.502;13.488;2024-01-30T08:51:45;4.80;1.00
1377;DHT22;682;52.502;13.488;2024-01-30T08:54:13;4.90;1.00
1377;DHT22;682;52.502;13.488;2024-01-30T08:56:41;5.00;1.00
1377;DHT22;682;52.502;13.488;2024-01-30T08:59:09;5.20;1.00
1377;DHT22;682;52.502;13.488;2024-01-30T09:01:36;5.40;1.00
1377;DHT22;682;52.502;13.488;2024-01-30T09:04:04;5.50;1.00
1377;DHT22;682;52.502;13.488;2024-01-30T09:06:32;5.60;1.00
1377;DHT22;682;52.502;13.488;2024-01-30T09:09:00;5.90;1.00
1377;DHT22;682;52.502;13.488;2024-01-30T09:11:27;6.10;1.00
1377;DHT22;682;52.502;13.488;2024-01-30T09:13:54;6.20;1.00
1377;DHT22;682;52.502;13.488;2024-01-30T09:16:22;6.40;1.00
1377;DHT22;682;52.502;13.488;2024-01-30T09:18:49;6.60;1.00
1377;DHT22;682;52.502;13.488;2024-01-30T09:21:19;6.70;1.00
1377;DHT22;682;52.502;13.488;2024-01-30T09:23:46;6.90;1.00
1377;DHT22;682;52.502;13.488;2024-01-30T09:26:14;6.90;1.00
1377;DHT22;682;52.502;13.488;2024-01-30T09:28:42;7.00;1.00
1377;DHT22;682;52.502;13.488;2024-01-30T09:31:10;7.00;1.00
1377;DHT22;682;52.502;13.488;2024-01-30T09:33:38;7.00;1.00
1377;DHT22;682;52.502;13.488;2024-01-30T09:36:09;7.10;1.00
1377;DHT22;682;52.502;13.488;2024-01-30T09:38:38;7.10;1.00
1377;DHT22;682;52.502;13.488;2024-01-30T09:41:10;7.20;1.00
1377;DHT22;682;52.502;13.488;2024-01-30T09:43:38;7.20;1.00
1377;DHT22;682;52.502;13.488;2024-01-30T09:46:06;7.30;1.00
1377;DHT22;682;52.502;13.488;2024-01-30T09:48:35;7.50;1.00
1377;DHT22;682;52.502;13.488;2024-01-30T09:51:04;7.60;1.00
1377;DHT22;682;52.502;13.488;2024-01-30T09:53:31;7.70;1.00
1377;DHT22;682;52.502;13.488;2024-01-30T09:55:58;7.90;1.00
1377;DHT22;682;52.502;13.488;2024-01-30T09:58:25;7.90;1.00
1377;DHT22;682;52.502;13.488;2024-01-30T10:00:52;7.90;1.00
1377;DHT22;682;52.502;13.488;2024-01-30T10:03:19;8.00;1.00
1377;DHT22;682;52.502;13.488;2024-01-30T10:05:51;8.20;1.00
1377;DHT22;682;52.502;13.488;2024-01-30T10:08:20;8.50;1.00
1377;DHT22;682;52.502;13.488;2024-01-30T10:10:47;8.80;1.00
1377;DHT22;682;52.502;13.488;2024-01-30T10:13:15;9.00;1.00
1377;DHT22;682;52.502;13.488;2024-01-30T10:15:42;9.40;1.00
1377;DHT22;682;52.502;13.488;2024-01-30T10:18:10;9.40;1.00
1377;DHT22;682;52.502;13.488;2024-01-30T10:20:37;9.50;1.00
1377;DHT22;682;52.502;13.488;2024-01-30T10:23:06;9.60;1.00
1377;DHT22;682;52.502;13.488;2024-01-30T10:25:35;9.70;1.00
1377;DHT22;682;52.502;13.488;2024-01-30T10:28:03;9.70;1.00
1377;DHT22;682;52.502;13.488;2024-01-30T10:30:30;9.70;1.00
1377;DHT22;682;52.502;13.488;2024-01-30T10:32:58;9.70;1.00
1377;DHT22;682;52.502;13.488;2024-01-30T10:35:25;9.70;1.00
1377;DHT22;682;52.502;13.488;2024-01-30T10:37:57;9.70;1.00
1377;DHT22;682;52.502;13.488;2024-01-30T10:40:27;9.70;1.00
1377;DHT22;682;52.502;13.488;2024-01-30T10:42:56;9.80;1.00
1377;DHT22;682;52.502;13.488;2024-01-30T10:45:23;9.80;1.00
1377;DHT22;682;52.502;13.488;2024-01-30T10:47:54;9.90;1.00
1377;DHT22;682;52.502;13.488;2024-01-30T10:50:24;10.00;1.00
1377;DHT22;682;52.502;13.488;2024-01-30T10:52:52;9.90;1.00
1377;DHT22;682;52.502;13.488;2024-01-30T10:55:22;9.90;1.00
1377;DHT22;682;52.502;13.488;2024-01-30T10:57:50;9.90;1.00
1377;DHT22;682;52.502;13.488;2024-01-30T11:00:19;9.90;1.00
1377;DHT22;682;52.502;13.488;2024-01-30T11:02:49;9.90;1.00
1377;DHT22;682;52.502;13.488;2024-01-30T11:05:24;10.00;1.00
1377;DHT22;682;52.502;13.488;2024-01-30T11:07:52;10.10;1.00
1377;DHT22;682;52.502;13.488;2024-01-30T11:10:21;10.00;1.00
1377;DHT22;682;52.502;13.488;2024-01-30T11:12:52;10.10;1.00
1377;DHT22;682;52.502;13.488;2024-01-30T11:15:21;10.10;1.00
1377;DHT22;682;52.502;13.488;2024-01-30T11:17:52;10.20;1.00
1377;DHT22;682;52.502;13.488;2024-01-30T11:20:20;10.50;1.00
1377;DHT22;682;52.502;13.488;2024-01-30T11:22:48;10.50;1.00
1377;DHT22;682;52.502;13.488;2024-01-30T11:25:16;10.50;1.00
1377;DHT22;682;52.502;13.488;2024-01-30T11:27:43;10.40;1.00
1377;DHT22;682;52.502;13.488;2024-01-30T11:30:20;10.20;1.00
1377;DHT22;682;52.502;13.488;2024-01-30T11:32:58;10.10;1.00
1377;DHT22;682;52.502;13.488;2024-01-30T11:35:26;10.10;1.00
1377;DHT22;682;52.502;13.488;2024-01-30T11:37:57;10.00;1.00
1377;DHT22;682;52.502;13.488;2024-01-30T11:40:26;10.00;1.00
1377;DHT22;682;52.502;13.488;2024-01-30T11:42:54;10.00;1.00
1377;DHT22;682;52.502;13.488;2024-01-30T11:45:21;10.10;1.00
1377;DHT22;682;52.502;13.488;2024-01-30T11:47:50;10.20;1.00
1377;DHT22;682;52.502;13.488;2024-01-30T11:50:17;10.40;1.00
1377;DHT22;682;52.502;13.488;2024-01-30T11:52:44;10.40;1.00
1377;DHT22;682;52.502;13.488;2024-01-30T11:55:12;10.60;1.00
1377;DHT22;682;52.502;13.488;2024-01-30T11:57:39;10.70;1.00
1377;DHT22;682;52.502;13.488;2024-01-30T12:00:14;10.90;1.00
1377;DHT22;682;52.502;13.488;2024-01-30T12:02:48;11.00;1.00
1377;DHT22;682;52.502;13.488;2024-01-30T12:05:19;11.00;1.00
1377;DHT22;682;52.502;13.488;2024-01-30T12:07:46;10.90;1.00
1377;DHT22;682;52.502;13.488;2024-01-30T12:10:14;10.80;1.00
1377;DHT22;682;52.502;13.488;2024-01-30T12:12:44;11.00;1.00
1377;DHT22;682;52.502;13.488;2024-01-30T12:15:12;11.20;1.00
1377;DHT22;682;52.502;13.488;2024-01-30T12:17:40;11.30;1.00
1377;DHT22;682;52.502;13.488;2024-01-30T12:20:09;11.40;1.00
1377;DHT22;682;52.502;13.488;2024-01-30T12:22:39;11.50;1.00
1377;DHT22;682;52.502;13.488;2024-01-30T12:25:08;11.70;1.00
1377;DHT22;682;52.502;13.488;2024-01-30T12:27:36;11.80;1.00
1377;DHT22;682;52.502;13.488;2024-01-30T12:30:05;11.70;1.00
1377;DHT22;682;52.502;13.488;2024-01-30T12:32:34;11.30;1.00
1377;DHT22;682;52.502;13.488;2024-01-30T12:35:03;11.30;1.00
1377;DHT22;682;52.502;13.488;2024-01-30T12:37:32;11.40;1.00
1377;DHT22;682;52.502;13.488;2024-01-30T12:40:01;11.30;1.00
1377;DHT22;682;52.502;13.488;2024-01-30T12:42:28;11.20;1.00
1377;DHT22;682;52.502;13.488;2024-01-30T12:44:57;11.50;1.00
1377;DHT22;682;52.502;13.488;2024-01-30T12:47:25;11.60;1.00
1377;DHT22;682;52.502;13.488;2024-01-30T12:49:52;11.40;1.00
1377;DHT22;682;52.502;13.488;2024-01-30T12:52:20;11.20;1.00
1377;DHT22;682;52.502;13.488;2024-01-30T12:54:48;11.20;1.00
1377;DHT22;682;52.502;13.488;2024-01-30T12:57:18;11.30;1.00
1377;DHT22;682;52.502;13.488;2024-01-30T12:59:47;11.10;1.00
1377;DHT22;682;52.502;13.488;2024-01-30T13:02:15;11.10;1.00
1377;DHT22;682;52.502;13.488;2024-01-30T13:04:43;11.20;1.00
1377;DHT22;682;52.502;13.488;2024-01-30T13:07:11;11.30;1.00
1377;DHT22;682;52.502;13.488;2024-01-30T13:09:38;11.20;1.00
1377;DHT22;682;52.502;13.488;2024-01-30T13:12:06;11.50;1.00
1377;DHT22;682;52.502;13.488;2024-01-30T13:14:35;11.70;1.00
1377;DHT22;682;52.502;13.488;2024-01-30T13:17:02;11.80;1.00
1377;DHT22;682;52.502;13.488;2024-01-30T13:19:29;11.90;1.00
1377;DHT22;682;52.502;13.488;2024-01-30T13:21:56;12.00;1.00
1377;DHT22;682;52.502;13.488;2024-01-30T13:24:23;11.90;1.00
1377;DHT22;682;52.502;13.488;2024-01-30T13:26:50;11.80;1.00
1377;DHT22;682;52.502;13.488;2024-01-30T13:29:18;11.70;1.00
1377;DHT22;682;52.502;13.488;2024-01-30T13:31:46;11.50;1.00
1377;DHT22;682;52.502;13.488;2024-01-30T13:34:13;11.50;1.00
1377;DHT22;682;52.502;13.488;2024-01-30T13:36:40;11.50;1.00
1377;DHT22;682;52.502;13.488;2024-01-30T13:39:09;11.30;1.00
1377;DHT22;682;52.502;13.488;2024-01-30T13:41:37;11.10;1.00
1377;DHT22;682;52.502;13.488;2024-01-30T13:44:05;10.90;1.00
1377;DHT22;682;52.502;13.488;2024-01-30T13:46:32;11.00;1.00
1377;DHT22;682;52.502;13.488;2024-01-30T13:49:02;10.70;1.00
1377;DHT22;682;52.502;13.488;2024-01-30T13:51:29;10.70;1.00
1377;DHT22;682;52.502;13.488;2024-01-30T13:53:56;10.80;1.00
1377;DHT22;682;52.502;13.488;2024-01-30T13:56:25;11.00;1.00
1377;DHT22;682;52.502;13.488;2024-01-30T13:58:53;11.00;1.00
1377;DHT22;682;52.502;13.488;2024-01-30T14:01:22;11.10;1.00
1377;DHT22;682;52.502;13.488;2024-01-30T14:03:50;11.00;1.00
1377;DHT22;682;52.502;13.488;2024-01-30T14:06:18;10.90;1.00
1377;DHT22;682;52.502;13.488;2024-01-30T14:08:45;11.00;1.00
1377;DHT22;682;52.502;13.488;2024-01-30T14:11:12;10.90;1.00
1377;DHT22;682;52.502;13.488;2024-01-30T14:13:39;10.90;1.00
1377;DHT22;682;52.502;13.488;2024-01-30T14:16:07;10.80;1.00
1377;DHT22;682;52.502;13.488;2024-01-30T14:18:34;10.70;1.00
1377;DHT22;682;52.502;13.488;2024-01-30T14:21:01;10.60;1.00
1377;DHT22;682;52.502;13.488;2024-01-30T14:23:29;10.60;1.00
1377;DHT22;682;52.502;13.488;2024-01-30T14:26:01;10.50;1.00
1377;DHT22;682;52.502;13.488;2024-01-30T14:28:32;10.50;1.00
1377;DHT22;682;52.502;13.488;2024-01-30T14:30:59;10.50;1.00
1377;DHT22;682;52.502;13.488;2024-01-30T14:33:26;10.50;1.00
1377;DHT22;682;52.502;13.488;2024-01-30T14:35:55;10.40;1.00
1377;DHT22;682;52.502;13.488;2024-01-30T14:38:23;10.40;1.00
1377;DHT22;682;52.502;13.488;2024-01-30T14:40:52;10.40;1.00
1377;DHT22;682;52.502;13.488;2024-01-30T14:43:19;10.50;1.00
1377;DHT22;682;52.502;13.488;2024-01-30T14:45:46;10.50;1.00
1377;DHT22;682;52.502;13.488;2024-01-30T14:48:15;10.40;1.00
1377;DHT22;682;52.502;13.488;2024-01-30T14:50:42;10.40;1.00
1377;DHT22;682;52.502;13.488;2024-01-30T14:53:09;10.30;1.00
1377;DHT22;682;52.502;13.488;2024-01-30T14:55:36;10.30;1.00
1377;DHT22;682;52.502;13.488;2024-01-30T14:58:06;10.10;1.00
1377;DHT22;682;52.502;13.488;2024-01-30T15:00:34;10.00;1.00
1377;DHT22;682;52.502;13.488;2024-01-30T15:03:04;9.90;1.00
1377;DHT22;682;52.502;13.488;2024-01-30T15:05:31;9.80;1.00
1377;DHT22;682;52.502;13.488;2024-01-30T15:07:58;9.70;1.00
1377;DHT22;682;52.502;13.488;2024-01-30T15:10:25;9.70;1.00
1377;DHT22;682;52.502;13.488;2024-01-30T15:12:54;9.70;1.00
1377;DHT22;682;52.502;13.488;2024-01-30T15:15:23;9.60;1.00
1377;DHT22;682;52.502;13.488;2024-01-30T15:17:51;9.70;1.00
1377;DHT22;682;52.502;13.488;2024-01-30T15:20:18;9.60;1.00
1377;DHT22;682;52.502;13.488;2024-01-30T15:22:45;9.60;1.00
1377;DHT22;682;52.502;13.488;2024-01-30T15:25:13;9.50;1.00
1377;DHT22;682;52.502;13.488;2024-01-30T15:27:41;9.50;1.00
1377;DHT22;682;52.502;13.488;2024-01-30T15:30:08;9.50;1.00
1377;DHT22;682;52.502;13.488;2024-01-30T15:32:39;9.50;1.00
1377;DHT22;682;52.502;13.488;2024-01-30T15:35:06;9.40;1.00
1377;DHT22;682;52.502;13.488;2024-01-30T15:37:34;9.40;1.00
1377;DHT22;682;52.502;13.488;2024-01-30T15:40:01;9.30;1.00
1377;DHT22;682;52.502;13.488;2024-01-30T15:42:31;9.30;1.00
1377;DHT22;682;52.502;13.488;2024-01-30T15:44:59;9.30;1.00
1377;DHT22;682;52.502;13.488;2024-01-30T15:47:27;9.30;1.00
1377;DHT22;682;52.502;13.488;2024-01-30T15:49:55;9.20;1.00
1377;DHT22;682;52.502;13.488;2024-01-30T15:52:22;9.20;1.00
1377;DHT22;682;52.502;13.488;2024-01-30T15:54:49;9.10;1.00
1377;DHT22;682;52.502;13.488;2024-01-30T15:57:16;9.10;1.00
1377;DHT22;682;52.502;13.488;2024-01-30T15:59:43;9.00;1.00
1377;DHT22;682;52.502;13.488;2024-01-30T16:02:10;9.00;1.00
1377;DHT22;682;52.502;13.488;2024-01-30T16:04:39;9.00;1.00
1377;DHT22;682;52.502;13.488;2024-01-30T16:07:09;9.00;1.00
1377;DHT22;682;52.502;13.488;2024-01-30T16:09:35;9.00;1.00
1377;DHT22;682;52.502;13.488;2024-01-30T16:12:03;9.00;1.00
1377;DHT22;682;52.502;13.488;2024-01-30T16:14:30;8.80;1.00
1377;DHT22;682;52.502;13.488;2024-01-30T16:16:57;8.80;1.00
1377;DHT22;682;52.502;13.488;2024-01-30T16:19:24;8.80;1.00
1377;DHT22;682;52.502;13.488;2024-01-30T16:21:51;8.60;1.00
1377;DHT22;682;52.502;13.488;2024-01-30T16:24:19;8.60;1.00
1377;DHT22;682;52.502;13.488;2024-01-30T16:26:48;8.50;1.00
1377;DHT22;682;52.502;13.488;2024-01-30T16:29:16;8.50;1.00
1377;DHT22;682;52.502;13.488;2024-01-30T16:31:43;8.50;1.00
1377;DHT22;682;52.502;13.488;2024-01-30T16:34:10;8.50;1.00